Terminal Aerodrome Forecast
Issued by NWS Mt. Holly, NJ

Home | Current Version | Previous Version | Text Only | Print | Product List | Glossary On
Versions: 1 2 3 4 5 6 7 8 9 10 11 12 13 14 15 16 17 18 19 20 21 22 23 24 25 26 27 28 29 30 31 32 33 34 35 36 37 38 39 40 41 42 43 44 45 46 47 48
137
FTUS41 KPHI 230301 AAA
TAFABE
TAF AMD
KABE 230301Z 2303/2324 VRB03KT P6SM BKN090
     FM230500 26004KT 3SM BR SCT090
      TEMPO 2306/2310 3/4SM BR VV002
     FM231100 30006KT P6SM BKN025
     FM231500 32006KT P6SM SCT050=

USA.gov is the U.S. government's official web portal to all federal, state and local government web resources and services.